Time;durP1;ratioP1;P1;durP2;ratioP2;P2;SDS_P1;SDS_P2;PMS_P1;PMS_P2;Temp;Humidity;BMP_temperature;BMP_pressure;BME280_temperature;BME280_humidity;BME280_pressure;Samples;Min_cycle;Max_cycle;Signal;HPM_P1;HPM_P2
2023/05/02 00:00:04;;;;;;;6.93;5.38;;;;;;;;;;5113981;28;20035;-62
2023/05/02 00:02:30;;;;;;;7.57;5.40;;;;;;;;;;5114398;28;20027;-62
2023/05/02 00:04:56;;;;;;;8.65;5.65;;;;;;;;;;5114501;28;20031;-62
2023/05/02 00:07:22;;;;;;;7.60;5.50;;;;;;;;;;5113768;28;20069;-61
2023/05/02 00:09:48;;;;;;;7.88;5.55;;;;;;;;;;5112420;28;20421;-61
2023/05/02 00:12:14;;;;;;;7.90;5.40;;;;;;;;;;5111121;28;20491;-62
2023/05/02 00:14:40;;;;;;;7.07;5.10;;;;;;;;;;5113702;27;20074;-62
2023/05/02 00:17:06;;;;;;;8.57;5.75;;;;;;;;;;5113697;28;20528;-61
2023/05/02 00:19:32;;;;;;;6.90;5.28;;;;;;;;;;5113546;28;20154;-62
2023/05/02 00:21:58;;;;;;;6.32;5.10;;;;;;;;;;5114069;28;20020;-62
2023/05/02 00:24:25;;;;;;;6.88;5.50;;;;;;;;;;5113521;28;20463;-62
2023/05/02 00:26:51;;;;;;;7.38;5.38;;;;;;;;;;5113773;28;20070;-62
2023/05/02 00:29:17;;;;;;;7.72;5.75;;;;;;;;;;5113260;28;20507;-62
2023/05/02 00:31:43;;;;;;;7.22;5.70;;;;;;;;;;5113428;28;20024;-62
2023/05/02 00:34:09;;;;;;;7.97;4.97;;;;;;;;;;5112884;28;20027;-62
2023/05/02 00:36:35;;;;;;;7.05;5.35;;;;;;;;;;5113393;28;20030;-62
2023/05/02 00:39:01;;;;;;;9.77;5.65;;;;;;;;;;5113166;28;20502;-61
2023/05/02 00:41:27;;;;;;;6.53;5.60;;;;;;;;;;5113698;28;20024;-62
2023/05/02 00:43:53;;;;;;;7.90;4.82;;;;;;;;;;5113420;28;20027;-61
2023/05/02 00:46:19;;;;;;;6.15;5.03;;;;;;;;;;5112864;28;20102;-62
2023/05/02 00:48:45;;;;;;;6.68;4.95;;;;;;;;;;5113038;28;20426;-62
2023/05/02 00:51:12;;;;;;;7.43;6.10;;;;;;;;;;5112259;28;20100;-61
2023/05/02 00:53:38;;;;;;;6.88;5.30;;;;;;;;;;5113007;28;20047;-61
2023/05/02 00:56:04;;;;;;;8.05;6.07;;;;;;;;;;5112947;28;20019;-62
2023/05/02 00:58:30;;;;;;;10.10;6.30;;;;;;;;;;5112932;28;20019;-62
2023/05/02 01:00:56;;;;;;;9.02;6.00;;;;;;;;;;5113318;28;20383;-62
2023/05/02 01:03:39;;;;;;;6.38;4.72;;;;;;;;;;5112355;28;20027;-62
2023/05/02 01:06:19;;;;;;;8.30;5.03;;;;;;;;;;5112207;28;20028;-62
2023/05/02 01:09:06;;;;;;;7.05;5.25;;;;;;;;;;5112821;28;20028;-62
2023/05/02 01:11:38;;;;;;;7.03;5.00;;;;;;;;;;5112645;28;20020;-62
2023/05/02 01:14:05;;;;;;;7.75;5.75;;;;;;;;;;5110122;28;20084;-61
2023/05/02 01:16:32;;;;;;;6.90;5.50;;;;;;;;;;5111488;28;20023;-61
2023/05/02 01:18:59;;;;;;;6.82;4.70;;;;;;;;;;5112796;28;20388;-62
2023/05/02 01:21:26;;;;;;;7.55;5.47;;;;;;;;;;5111972;28;20027;-62
2023/05/02 01:23:59;;;;;;;6.93;5.50;;;;;;;;;;5112503;28;20035;-62
2023/05/02 01:26:40;;;;;;;5.82;5.07;;;;;;;;;;5112506;28;20030;-61
2023/05/02 01:29:08;;;;;;;7.03;5.30;;;;;;;;;;5112044;28;20472;-62
2023/05/02 01:31:35;;;;;;;8.90;4.97;;;;;;;;;;5112308;28;20040;-62
2023/05/02 01:34:02;;;;;;;6.78;4.97;;;;;;;;;;5111680;28;20036;-62
2023/05/02 01:36:30;;;;;;;6.82;5.47;;;;;;;;;;5112494;28;20030;-61
2023/05/02 01:38:56;;;;;;;6.57;5.13;;;;;;;;;;5112378;28;20039;-61
2023/05/02 01:41:25;;;;;;;6.50;5.13;;;;;;;;;;5111716;28;20106;-62
2023/05/02 01:43:53;;;;;;;7.40;5.70;;;;;;;;;;5112091;28;20031;-62
2023/05/02 01:46:19;;;;;;;6.97;5.07;;;;;;;;;;5111672;28;20019;-62
2023/05/02 01:48:47;;;;;;;5.65;5.03;;;;;;;;;;5112107;28;20026;-62
2023/05/02 01:51:14;;;;;;;7.60;4.85;;;;;;;;;;5111382;28;20028;-62
2023/05/02 01:53:40;;;;;;;9.57;5.57;;;;;;;;;;5111807;28;20554;-62
2023/05/02 01:56:07;;;;;;;7.60;5.47;;;;;;;;;;5111727;28;20073;-62
2023/05/02 01:58:34;;;;;;;6.63;4.90;;;;;;;;;;5111962;28;20027;-62
2023/05/02 02:01:00;;;;;;;7.80;5.20;;;;;;;;;;5112032;28;20047;-61
2023/05/02 02:03:28;;;;;;;7.70;5.30;;;;;;;;;;5111114;28;20027;-62
2023/05/02 02:05:54;;;;;;;12.75;5.68;;;;;;;;;;5111757;28;20093;-61
2023/05/02 02:08:20;;;;;;;7.38;4.95;;;;;;;;;;5110172;28;20439;-61
2023/05/02 02:10:50;;;;;;;7.70;5.30;;;;;;;;;;5111353;28;20058;-62
2023/05/02 02:13:23;;;;;;;7.40;5.10;;;;;;;;;;5111476;28;20062;-61
2023/05/02 02:15:50;;;;;;;7.97;5.43;;;;;;;;;;5111629;28;20854;-62
2023/05/02 02:18:24;;;;;;;8.13;5.97;;;;;;;;;;5109560;28;20202;-62
2023/05/02 02:20:50;;;;;;;6.88;4.72;;;;;;;;;;5110361;28;20533;-61
2023/05/02 02:23:18;;;;;;;6.80;5.25;;;;;;;;;;5111363;28;20027;-61
2023/05/02 02:25:44;;;;;;;7.18;4.82;;;;;;;;;;5111251;28;20027;-62
2023/05/02 02:28:11;;;;;;;6.10;4.53;;;;;;;;;;5111168;28;20050;-61
2023/05/02 02:30:36;;;;;;;5.93;5.22;;;;;;;;;;5111288;28;20034;-62
2023/05/02 02:33:02;;;;;;;8.48;5.85;;;;;;;;;;5110769;28;20023;-62
2023/05/02 02:35:33;;;;;;;7.60;5.50;;;;;;;;;;5111444;28;20501;-61
2023/05/02 02:38:22;;;;;;;6.65;5.07;;;;;;;;;;5111462;28;20058;-61
2023/05/02 02:40:54;;;;;;;6.53;4.63;;;;;;;;;;5111270;28;20027;-61
2023/05/02 02:43:27;;;;;;;8.63;4.93;;;;;;;;;;5111005;28;20494;-62
2023/05/02 02:46:22;;;;;;;5.65;4.90;;;;;;;;;;5111188;28;20049;-61
2023/05/02 02:49:02;;;;;;;7.22;5.30;;;;;;;;;;5098029;28;20042;-62
2023/05/02 02:51:31;;;;;;;7.03;5.05;;;;;;;;;;5111374;28;20027;-62
2023/05/02 02:54:04;;;;;;;6.72;5.18;;;;;;;;;;5111012;28;20126;-62
2023/05/02 02:56:36;;;;;;;8.48;5.30;;;;;;;;;;5111372;28;20095;-62
2023/05/02 02:59:04;;;;;;;6.40;5.00;;;;;;;;;;5109323;28;20027;-61
2023/05/02 03:01:31;;;;;;;6.72;5.00;;;;;;;;;;5111030;28;20016;-61
2023/05/02 03:03:57;;;;;;;7.35;4.97;;;;;;;;;;5111423;28;20317;-61
2023/05/02 03:06:24;;;;;;;6.30;5.53;;;;;;;;;;5110441;28;20020;-62
2023/05/02 03:08:50;;;;;;;6.05;4.95;;;;;;;;;;5110878;28;20039;-61
2023/05/02 03:11:16;;;;;;;6.45;4.93;;;;;;;;;;5110663;28;20053;-62
2023/05/02 03:13:42;;;;;;;7.25;5.00;;;;;;;;;;5110354;28;20411;-61
2023/05/02 03:16:27;;;;;;;6.50;5.25;;;;;;;;;;5114772;28;20019;-63
2023/05/02 03:18:53;;;;;;;7.70;5.50;;;;;;;;;;5114734;28;20429;-61
2023/05/02 03:21:19;;;;;;;7.25;5.03;;;;;;;;;;5112092;27;20506;-63
2023/05/02 03:23:45;;;;;;;5.85;4.80;;;;;;;;;;5114912;28;20027;-61
2023/05/02 03:26:12;;;;;;;5.68;4.95;;;;;;;;;;5126906;27;20025;-61
2023/05/02 03:28:38;;;;;;;6.70;5.20;;;;;;;;;;5118404;27;20043;-61
2023/05/02 03:31:04;;;;;;;7.53;5.18;;;;;;;;;;5114460;28;20053;-61
2023/05/02 03:33:31;;;;;;;6.75;5.10;;;;;;;;;;5114800;28;20042;-61
2023/05/02 03:35:57;;;;;;;8.00;5.43;;;;;;;;;;5114722;28;20085;-61
2023/05/02 03:38:23;;;;;;;7.57;5.38;;;;;;;;;;5114663;28;20032;-62
2023/05/02 03:40:49;;;;;;;7.13;4.68;;;;;;;;;;5113736;28;20012;-62
2023/05/02 03:43:15;;;;;;;8.00;5.38;;;;;;;;;;5114297;28;20028;-61
2023/05/02 03:45:41;;;;;;;5.60;4.68;;;;;;;;;;5113969;28;20413;-61
2023/05/02 03:48:07;;;;;;;9.40;5.53;;;;;;;;;;5114074;27;20130;-61
2023/05/02 03:50:33;;;;;;;6.65;4.43;;;;;;;;;;5114089;28;20057;-61
2023/05/02 03:52:59;;;;;;;6.65;5.25;;;;;;;;;;5114529;28;20494;-62
2023/05/02 03:55:27;;;;;;;6.82;5.00;;;;;;;;;;5114381;28;20106;-62
2023/05/02 03:57:53;;;;;;;7.00;4.50;;;;;;;;;;5113932;28;20031;-61
2023/05/02 04:00:19;;;;;;;6.20;4.80;;;;;;;;;;5113959;28;20030;-61
2023/05/02 04:02:45;;;;;;;8.23;5.00;;;;;;;;;;5113610;28;20102;-62
2023/05/02 04:05:11;;;;;;;7.25;5.20;;;;;;;;;;5114256;28;20055;-62
2023/05/02 04:07:37;;;;;;;5.75;4.70;;;;;;;;;;5113530;28;20489;-62
2023/05/02 04:10:03;;;;;;;5.20;4.38;;;;;;;;;;5113946;28;20122;-61
2023/05/02 04:12:29;;;;;;;6.57;4.72;;;;;;;;;;5114113;28;20020;-61
2023/05/02 04:14:55;;;;;;;7.47;5.07;;;;;;;;;;5113720;28;20051;-61
2023/05/02 04:17:21;;;;;;;5.53;4.57;;;;;;;;;;5113510;28;20123;-61
2023/05/02 04:19:47;;;;;;;7.20;4.95;;;;;;;;;;5113468;28;20019;-62
2023/05/02 04:22:13;;;;;;;7.38;4.65;;;;;;;;;;5112335;28;20395;-61
2023/05/02 04:24:40;;;;;;;6.00;4.40;;;;;;;;;;5110380;28;20120;-61
2023/05/02 04:27:06;;;;;;;5.15;4.30;;;;;;;;;;5111903;28;20483;-61
2023/05/02 04:29:32;;;;;;;6.60;4.30;;;;;;;;;;5113686;28;20085;-61
2023/05/02 04:31:58;;;;;;;6.65;4.68;;;;;;;;;;5113342;28;20019;-61
2023/05/02 04:34:25;;;;;;;6.47;4.70;;;;;;;;;;5113368;28;20081;-61
2023/05/02 04:36:50;;;;;;;6.20;4.60;;;;;;;;;;5112915;28;20036;-61
2023/05/02 04:39:16;;;;;;;8.25;5.95;;;;;;;;;;5113498;28;20031;-61
2023/05/02 04:41:42;;;;;;;6.32;5.03;;;;;;;;;;5113195;28;20019;-61
2023/05/02 04:44:08;;;;;;;7.97;5.50;;;;;;;;;;5113109;28;20372;-61
2023/05/02 04:46:34;;;;;;;5.22;4.43;;;;;;;;;;5113156;28;20141;-61
2023/05/02 04:49:01;;;;;;;6.55;4.63;;;;;;;;;;5113453;28;20496;-61
2023/05/02 04:51:28;;;;;;;6.05;4.65;;;;;;;;;;5113167;28;20026;-61
2023/05/02 04:53:54;;;;;;;8.27;5.38;;;;;;;;;;5112552;27;20388;-62
2023/05/02 04:56:20;;;;;;;7.38;5.22;;;;;;;;;;5113152;28;20024;-62
2023/05/02 04:58:46;;;;;;;6.53;5.57;;;;;;;;;;5112758;28;20057;-61
2023/05/02 05:01:12;;;;;;;8.30;5.38;;;;;;;;;;5112873;28;20065;-61
2023/05/02 05:03:38;;;;;;;6.53;5.05;;;;;;;;;;5112521;28;20036;-61
2023/05/02 05:06:04;;;;;;;5.70;4.53;;;;;;;;;;5113049;28;20016;-62
2023/05/02 05:08:30;;;;;;;6.18;4.65;;;;;;;;;;5113430;28;20047;-60
2023/05/02 05:10:56;;;;;;;8.73;5.32;;;;;;;;;;5112366;28;20501;-61
2023/05/02 05:13:22;;;;;;;6.95;5.10;;;;;;;;;;5112803;28;20035;-61
2023/05/02 05:15:48;;;;;;;7.72;5.70;;;;;;;;;;5112757;28;20372;-61
2023/05/02 05:18:14;;;;;;;8.20;6.20;;;;;;;;;;5112761;28;20031;-60
2023/05/02 05:20:40;;;;;;;6.70;5.43;;;;;;;;;;5111431;28;20522;-60
2023/05/02 05:23:06;;;;;;;6.88;5.35;;;;;;;;;;5109332;28;20032;-60
2023/05/02 05:25:32;;;;;;;8.65;5.68;;;;;;;;;;5112820;28;20027;-61
2023/05/02 05:28:01;;;;;;;6.43;4.93;;;;;;;;;;5111686;28;20034;-60
2023/05/02 05:30:29;;;;;;;6.10;4.93;;;;;;;;;;5112896;28;20023;-60
2023/05/02 05:32:56;;;;;;;7.10;5.90;;;;;;;;;;5111436;28;20035;-61
2023/05/02 05:35:21;;;;;;;7.65;6.15;;;;;;;;;;5112484;28;20456;-60
2023/05/02 05:37:47;;;;;;;6.75;5.20;;;;;;;;;;5111569;28;20131;-60
2023/05/02 05:40:13;;;;;;;9.65;5.63;;;;;;;;;;5111470;28;20407;-60
2023/05/02 05:42:40;;;;;;;9.80;5.43;;;;;;;;;;5111556;28;20060;-60
2023/05/02 05:45:06;;;;;;;7.75;5.60;;;;;;;;;;5112451;28;20415;-62
2023/05/02 05:47:32;;;;;;;7.40;5.78;;;;;;;;;;5112936;28;20452;-60
2023/05/02 05:49:58;;;;;;;9.55;5.63;;;;;;;;;;5112362;28;20061;-61
2023/05/02 05:52:24;;;;;;;10.13;5.40;;;;;;;;;;5112294;27;20207;-60
2023/05/02 05:54:54;;;;;;;8.35;5.22;;;;;;;;;;5111308;28;20039;-61
2023/05/02 05:57:20;;;;;;;8.70;5.70;;;;;;;;;;5111858;28;20024;-60
2023/05/02 05:59:46;;;;;;;9.70;6.25;;;;;;;;;;5111426;28;20054;-61
2023/05/02 06:02:12;;;;;;;8.85;5.20;;;;;;;;;;5111628;28;20922;-60
2023/05/02 06:04:38;;;;;;;7.82;5.65;;;;;;;;;;5110988;28;20514;-60
2023/05/02 06:07:04;;;;;;;6.03;4.72;;;;;;;;;;5112040;28;20028;-61
2023/05/02 06:09:30;;;;;;;8.27;5.65;;;;;;;;;;5112205;28;20026;-62
2023/05/02 06:11:56;;;;;;;8.65;5.68;;;;;;;;;;5111239;28;20024;-64
2023/05/02 06:14:23;;;;;;;8.38;5.15;;;;;;;;;;5111715;28;20169;-61
2023/05/02 06:16:49;;;;;;;6.22;5.03;;;;;;;;;;5111485;28;20035;-60
2023/05/02 06:19:15;;;;;;;6.85;5.20;;;;;;;;;;5111959;28;20030;-60
2023/05/02 06:21:41;;;;;;;11.73;6.88;;;;;;;;;;5111021;28;20026;-61
2023/05/02 06:24:07;;;;;;;9.55;5.03;;;;;;;;;;5111553;28;20491;-60
2023/05/02 06:26:33;;;;;;;9.05;5.78;;;;;;;;;;5110781;28;20020;-60
2023/05/02 06:28:58;;;;;;;7.82;5.45;;;;;;;;;;5111630;28;20503;-60
2023/05/02 06:31:24;;;;;;;8.63;5.45;;;;;;;;;;5111558;28;20019;-61
2023/05/02 06:33:51;;;;;;;10.13;6.30;;;;;;;;;;5111112;28;20046;-61
2023/05/02 06:36:17;;;;;;;6.93;5.15;;;;;;;;;;5111746;28;20054;-60
2023/05/02 06:38:43;;;;;;;7.30;5.82;;;;;;;;;;5111444;28;20437;-60
2023/05/02 06:41:15;;;;;;;9.45;5.25;;;;;;;;;;5110836;28;20092;-60
2023/05/02 06:43:41;;;;;;;9.57;5.70;;;;;;;;;;5091082;28;20028;-60
2023/05/02 06:46:08;;;;;;;9.15;6.53;;;;;;;;;;5103997;28;20035;-60
2023/05/02 06:48:37;;;;;;;11.05;5.22;;;;;;;;;;5109803;28;20024;-60
2023/05/02 06:51:03;;;;;;;9.65;6.15;;;;;;;;;;5109786;28;20530;-60
2023/05/02 06:53:30;;;;;;;7.50;5.20;;;;;;;;;;5110828;28;20454;-60
2023/05/02 06:55:56;;;;;;;7.00;4.68;;;;;;;;;;5111210;28;20031;-59
2023/05/02 06:58:22;;;;;;;6.45;4.88;;;;;;;;;;5111430;28;20024;-60
2023/05/02 07:00:49;;;;;;;7.60;4.95;;;;;;;;;;5110689;28;20024;-60
2023/05/02 07:03:15;;;;;;;11.23;5.18;;;;;;;;;;5111439;28;20387;-60
2023/05/02 07:05:41;;;;;;;8.35;6.53;;;;;;;;;;5110769;28;20059;-60
2023/05/02 07:08:08;;;;;;;7.07;4.72;;;;;;;;;;5111279;28;20440;-61
2023/05/02 07:10:34;;;;;;;11.63;7.18;;;;;;;;;;5111154;28;20495;-60
2023/05/02 07:13:00;;;;;;;9.48;5.53;;;;;;;;;;5110980;28;20028;-59
2023/05/02 07:15:26;;;;;;;7.60;5.35;;;;;;;;;;5110758;28;20505;-61
2023/05/02 07:17:52;;;;;;;10.38;6.53;;;;;;;;;;5111148;28;20024;-60
2023/05/02 07:20:18;;;;;;;10.23;5.55;;;;;;;;;;5111129;28;20119;-60
2023/05/02 07:22:44;;;;;;;13.10;6.38;;;;;;;;;;5109669;28;20024;-60
2023/05/02 07:25:10;;;;;;;9.85;5.18;;;;;;;;;;5109206;28;20026;-59
2023/05/02 07:27:36;;;;;;;10.25;5.32;;;;;;;;;;5111026;28;20030;-60
2023/05/02 07:30:02;;;;;;;11.05;5.25;;;;;;;;;;5110311;28;20032;-60
2023/05/02 07:32:28;;;;;;;10.80;5.35;;;;;;;;;;5111204;28;20031;-60
2023/05/02 07:34:55;;;;;;;10.57;5.75;;;;;;;;;;5110586;28;20031;-60
2023/05/02 07:37:22;;;;;;;9.63;5.78;;;;;;;;;;5109742;28;20031;-60
2023/05/02 07:39:48;;;;;;;10.02;5.18;;;;;;;;;;5110492;28;20451;-61
2023/05/02 07:42:14;;;;;;;11.43;6.03;;;;;;;;;;5110774;28;20024;-59
2023/05/02 07:44:40;;;;;;;9.18;5.03;;;;;;;;;;5110869;28;20027;-60
2023/05/02 07:47:06;;;;;;;9.38;4.40;;;;;;;;;;5110943;28;20402;-60
2023/05/02 07:49:32;;;;;;;9.68;4.70;;;;;;;;;;5109625;28;20023;-61
2023/05/02 07:51:58;;;;;;;7.68;3.50;;;;;;;;;;5109597;28;20034;-61
2023/05/02 07:54:25;;;;;;;8.63;4.40;;;;;;;;;;5109807;28;20061;-60
2023/05/02 07:56:51;;;;;;;7.50;3.78;;;;;;;;;;5109454;28;20028;-61
2023/05/02 07:59:17;;;;;;;7.82;4.20;;;;;;;;;;5110982;28;20070;-61
2023/05/02 08:01:43;;;;;;;8.18;4.10;;;;;;;;;;5110873;28;20055;-61
2023/05/02 08:04:10;;;;;;;7.00;3.42;;;;;;;;;;5112412;28;20462;-60
2023/05/02 08:06:37;;;;;;;6.68;3.10;;;;;;;;;;5111767;28;20484;-60
2023/05/02 08:09:03;;;;;;;9.00;3.53;;;;;;;;;;5113177;28;20448;-61
2023/05/02 08:11:29;;;;;;;5.30;3.20;;;;;;;;;;5112812;28;20542;-60
2023/05/02 08:13:54;;;;;;;7.60;3.83;;;;;;;;;;5112377;28;20118;-60
2023/05/02 08:16:21;;;;;;;6.43;3.72;;;;;;;;;;5112585;28;20049;-60
2023/05/02 08:18:47;;;;;;;7.80;3.70;;;;;;;;;;5112362;28;20069;-60
2023/05/02 08:21:13;;;;;;;5.60;3.65;;;;;;;;;;5112292;28;20027;-60
2023/05/02 08:23:40;;;;;;;8.70;3.75;;;;;;;;;;5112144;28;20032;-60
2023/05/02 08:26:06;;;;;;;9.60;3.97;;;;;;;;;;5112335;28;20019;-61
2023/05/02 08:28:32;;;;;;;5.95;3.47;;;;;;;;;;5112620;28;20034;-60
2023/05/02 08:30:58;;;;;;;6.60;3.33;;;;;;;;;;5112385;28;20024;-60
2023/05/02 08:33:25;;;;;;;5.43;3.20;;;;;;;;;;5112231;28;20038;-61
2023/05/02 08:35:51;;;;;;;5.10;2.83;;;;;;;;;;5111834;28;20098;-62
2023/05/02 08:38:17;;;;;;;5.15;3.22;;;;;;;;;;5112421;28;20396;-62
2023/05/02 08:40:43;;;;;;;5.78;3.17;;;;;;;;;;5111879;28;20011;-61
2023/05/02 08:43:10;;;;;;;6.35;3.60;;;;;;;;;;5112051;28;20416;-60
2023/05/02 08:45:44;;;;;;;6.65;3.22;;;;;;;;;;5112077;28;20016;-60
2023/05/02 08:48:12;;;;;;;6.40;3.22;;;;;;;;;;5109441;28;20015;-59
2023/05/02 08:50:38;;;;;;;5.13;3.22;;;;;;;;;;5111752;28;20518;-60
2023/05/02 08:53:08;;;;;;;6.65;3.30;;;;;;;;;;5111903;28;20020;-60
2023/05/02 08:55:34;;;;;;;5.13;2.53;;;;;;;;;;5111708;28;20439;-60
2023/05/02 08:58:01;;;;;;;7.10;3.63;;;;;;;;;;5112050;28;20022;-60
2023/05/02 09:00:27;;;;;;;6.20;3.60;;;;;;;;;;5111746;28;20403;-59
2023/05/02 09:03:12;;;;;;;6.57;3.03;;;;;;;;;;5111477;28;20395;-60
2023/05/02 09:05:41;;;;;;;6.95;3.20;;;;;;;;;;5110140;28;20032;-60
2023/05/02 09:08:08;;;;;;;5.70;2.60;;;;;;;;;;5111643;28;20099;-62
2023/05/02 09:10:37;;;;;;;7.68;3.92;;;;;;;;;;5111577;28;20019;-59
2023/05/02 09:13:22;;;;;;;6.07;2.70;;;;;;;;;;5111187;28;20394;-61
2023/05/02 09:15:58;;;;;;;6.30;3.53;;;;;;;;;;5109892;28;20019;-61
2023/05/02 09:18:26;;;;;;;5.22;3.22;;;;;;;;;;5111995;28;20072;-61
2023/05/02 09:20:52;;;;;;;7.28;3.92;;;;;;;;;;5112745;28;20073;-61
2023/05/02 09:23:18;;;;;;;3.83;2.47;;;;;;;;;;5112221;28;20035;-60
2023/05/02 09:25:45;;;;;;;6.45;3.20;;;;;;;;;;5111946;28;20570;-60
2023/05/02 09:28:11;;;;;;;4.35;3.13;;;;;;;;;;5111710;28;20387;-60
2023/05/02 09:30:37;;;;;;;6.78;4.43;;;;;;;;;;5111582;28;20072;-61
2023/05/02 09:33:03;;;;;;;5.47;3.10;;;;;;;;;;5112659;28;20035;-61
2023/05/02 09:35:29;;;;;;;7.00;4.90;;;;;;;;;;5111728;28;20023;-61
2023/05/02 09:37:56;;;;;;;5.28;3.72;;;;;;;;;;5112393;28;20059;-61
2023/05/02 09:40:23;;;;;;;5.95;3.03;;;;;;;;;;5112671;28;20057;-60
2023/05/02 09:42:49;;;;;;;4.15;2.60;;;;;;;;;;5112583;28;20019;-61
2023/05/02 09:45:22;;;;;;;4.28;2.70;;;;;;;;;;5112206;28;20035;-61
2023/05/02 09:47:48;;;;;;;7.53;5.45;;;;;;;;;;5112337;28;20045;-61
2023/05/02 09:50:36;;;;;;;6.47;3.33;;;;;;;;;;5110797;28;20444;-61
2023/05/02 09:53:03;;;;;;;5.95;3.85;;;;;;;;;;5110259;28;20028;-61
2023/05/02 09:55:29;;;;;;;8.10;5.15;;;;;;;;;;5112023;28;20111;-61
2023/05/02 09:57:55;;;;;;;5.78;3.35;;;;;;;;;;5112347;27;20034;-60
2023/05/02 10:00:23;;;;;;;5.20;3.70;;;;;;;;;;5111444;28;20027;-60
2023/05/02 10:02:50;;;;;;;6.95;3.60;;;;;;;;;;5120088;27;20034;-61
2023/05/02 10:05:16;;;;;;;6.18;3.88;;;;;;;;;;5119063;27;20047;-61
2023/05/02 10:07:46;;;;;;;6.70;4.78;;;;;;;;;;5110551;28;20027;-61
2023/05/02 10:10:14;;;;;;;5.18;3.22;;;;;;;;;;5112116;27;20034;-62
2023/05/02 10:12:41;;;;;;;5.55;3.72;;;;;;;;;;5112487;27;20019;-62
2023/05/02 10:15:09;;;;;;;6.22;4.25;;;;;;;;;;5116429;27;20024;-62
2023/05/02 10:17:45;;;;;;;6.38;5.03;;;;;;;;;;5110862;27;20077;-61
2023/05/02 10:20:15;;;;;;;6.32;4.82;;;;;;;;;;5111845;27;20034;-61
2023/05/02 10:22:42;;;;;;;5.18;3.40;;;;;;;;;;5115541;27;20034;-60
2023/05/02 10:25:09;;;;;;;5.65;3.35;;;;;;;;;;5119414;27;20111;-61
2023/05/02 10:27:36;;;;;;;6.63;5.40;;;;;;;;;;5126244;27;20490;-61
2023/05/02 10:30:06;;;;;;;5.28;3.55;;;;;;;;;;5114827;27;20020;-62
2023/05/02 10:32:36;;;;;;;7.30;4.80;;;;;;;;;;5125406;27;20054;-61
2023/05/02 10:35:06;;;;;;;7.47;4.78;;;;;;;;;;5121947;27;20027;-61
2023/05/02 10:37:34;;;;;;;6.43;4.10;;;;;;;;;;5117013;27;20035;-61
2023/05/02 10:40:00;;;;;;;5.00;3.83;;;;;;;;;;5128173;27;20034;-61
2023/05/02 10:42:26;;;;;;;8.32;6.68;;;;;;;;;;5114271;27;20102;-61
2023/05/02 10:44:52;;;;;;;7.55;5.03;;;;;;;;;;5120011;27;20015;-61
2023/05/02 10:47:19;;;;;;;8.38;6.55;;;;;;;;;;5118645;28;20028;-61
2023/05/02 10:49:52;;;;;;;9.25;5.90;;;;;;;;;;5127653;28;20424;-61
2023/05/02 10:52:39;;;;;;;9.45;8.40;;;;;;;;;;5099313;28;20036;-61
2023/05/02 10:55:21;;;;;;;10.40;7.28;;;;;;;;;;5120099;27;20118;-62
2023/05/02 10:57:59;;;;;;;8.30;6.07;;;;;;;;;;5126315;28;20050;-61
2023/05/02 11:00:26;;;;;;;7.57;5.70;;;;;;;;;;5116394;28;20060;-61
2023/05/02 11:02:52;;;;;;;7.28;5.85;;;;;;;;;;5121676;28;20030;-61
2023/05/02 11:05:18;;;;;;;10.82;9.63;;;;;;;;;;5123899;28;20033;-61
2023/05/02 11:07:45;;;;;;;8.88;6.00;;;;;;;;;;5114125;27;20472;-61
2023/05/02 11:10:17;;;;;;;14.98;10.60;;;;;;;;;;5127501;28;20605;-61
2023/05/02 11:12:50;;;;;;;10.57;8.65;;;;;;;;;;5118591;28;20376;-61
2023/05/02 11:15:28;;;;;;;11.32;7.97;;;;;;;;;;5118687;28;20106;-61
2023/05/02 11:18:11;;;;;;;8.35;6.68;;;;;;;;;;5126740;28;20023;-61
2023/05/02 11:20:38;;;;;;;8.73;6.80;;;;;;;;;;5109790;28;20483;-61
2023/05/02 11:23:20;;;;;;;7.20;5.55;;;;;;;;;;5111042;28;20111;-62
2023/05/02 11:26:09;;;;;;;7.10;5.60;;;;;;;;;;5108537;28;20042;-61
2023/05/02 11:28:43;;;;;;;7.32;5.82;;;;;;;;;;5109988;28;20035;-61
2023/05/02 11:31:29;;;;;;;8.65;5.63;;;;;;;;;;5108950;28;20024;-61
2023/05/02 11:34:02;;;;;;;9.60;5.55;;;;;;;;;;5098230;28;20411;-61
2023/05/02 11:36:29;;;;;;;9.20;5.72;;;;;;;;;;5112716;27;20027;-61
2023/05/02 11:38:55;;;;;;;7.50;5.05;;;;;;;;;;5114459;27;20031;-61
2023/05/02 11:41:21;;;;;;;7.10;4.97;;;;;;;;;;5114629;27;20022;-61
2023/05/02 11:43:47;;;;;;;6.68;5.40;;;;;;;;;;5114320;27;20491;-61
2023/05/02 11:46:13;;;;;;;7.88;6.10;;;;;;;;;;5115387;27;20027;-61
2023/05/02 11:48:41;;;;;;;10.52;7.80;;;;;;;;;;5114113;27;20030;-60
2023/05/02 11:51:07;;;;;;;6.30;5.20;;;;;;;;;;5114265;27;20107;-61
2023/05/02 11:53:33;;;;;;;9.40;5.82;;;;;;;;;;5114513;27;20131;-61
2023/05/02 11:56:01;;;;;;;8.77;5.65;;;;;;;;;;5116024;27;20012;-60
2023/05/02 11:58:28;;;;;;;6.63;4.22;;;;;;;;;;5114269;27;20657;-62
2023/05/02 12:00:55;;;;;;;5.22;4.50;;;;;;;;;;5113866;27;20103;-61
2023/05/02 12:03:27;;;;;;;7.75;4.50;;;;;;;;;;5113908;27;20456;-62
2023/05/02 12:05:53;;;;;;;7.00;5.10;;;;;;;;;;5114805;27;20028;-61
2023/05/02 12:08:23;;;;;;;6.57;4.45;;;;;;;;;;5114440;27;20639;-61
2023/05/02 12:10:50;;;;;;;9.45;4.78;;;;;;;;;;5113920;27;20039;-62
2023/05/02 12:13:17;;;;;;;7.80;4.22;;;;;;;;;;5113923;27;20111;-61
2023/05/02 12:15:43;;;;;;;7.18;4.80;;;;;;;;;;5110871;27;20011;-61
2023/05/02 12:18:09;;;;;;;7.13;5.30;;;;;;;;;;5115487;27;20456;-62
2023/05/02 12:20:35;;;;;;;6.93;4.53;;;;;;;;;;5113367;27;20588;-61
2023/05/02 12:23:02;;;;;;;10.20;5.22;;;;;;;;;;5113978;27;20020;-62
2023/05/02 12:25:28;;;;;;;8.40;5.28;;;;;;;;;;5113856;27;20494;-61
2023/05/02 12:28:01;;;;;;;7.57;5.78;;;;;;;;;;5114546;27;20027;-61
2023/05/02 12:30:31;;;;;;;7.40;5.03;;;;;;;;;;5109800;28;20031;-61
2023/05/02 12:32:58;;;;;;;10.27;6.15;;;;;;;;;;5108845;28;20403;-61
2023/05/02 12:35:24;;;;;;;7.43;5.68;;;;;;;;;;5111768;28;20028;-61
2023/05/02 12:37:52;;;;;;;10.13;6.40;;;;;;;;;;5112478;28;20027;-61
2023/05/02 12:40:18;;;;;;;6.60;4.65;;;;;;;;;;5112267;28;20028;-61
2023/05/02 12:42:57;;;;;;;6.70;4.75;;;;;;;;;;5111948;28;20048;-62
2023/05/02 12:45:23;;;;;;;6.97;5.28;;;;;;;;;;5109936;28;20032;-61
2023/05/02 12:47:49;;;;;;;7.85;4.40;;;;;;;;;;5111088;27;20019;-61
2023/05/02 12:50:15;;;;;;;5.63;4.65;;;;;;;;;;5112210;28;20456;-62
2023/05/02 12:52:49;;;;;;;9.43;4.72;;;;;;;;;;5111776;28;20051;-61
2023/05/02 12:55:19;;;;;;;6.53;3.90;;;;;;;;;;5109948;28;20019;-61
2023/05/02 12:57:45;;;;;;;7.03;3.88;;;;;;;;;;5111627;28;20034;-61
2023/05/02 13:00:12;;;;;;;5.80;3.70;;;;;;;;;;5112119;28;20102;-61
2023/05/02 13:02:38;;;;;;;7.13;4.15;;;;;;;;;;5111411;28;20069;-60
2023/05/02 13:05:22;;;;;;;5.95;4.03;;;;;;;;;;5111940;28;20480;-61
2023/05/02 13:07:48;;;;;;;5.57;3.67;;;;;;;;;;5112253;28;20507;-61
2023/05/02 13:10:16;;;;;;;7.85;3.75;;;;;;;;;;5112200;28;20028;-61
2023/05/02 13:12:42;;;;;;;4.97;3.22;;;;;;;;;;5111951;28;20032;-61
2023/05/02 13:15:09;;;;;;;6.18;3.70;;;;;;;;;;5111754;28;20111;-61
2023/05/02 13:17:35;;;;;;;6.35;3.45;;;;;;;;;;5112818;28;20027;-62
2023/05/02 13:20:01;;;;;;;6.60;4.13;;;;;;;;;;5110751;28;20054;-62
2023/05/02 13:22:27;;;;;;;5.20;3.92;;;;;;;;;;5111766;28;20030;-61
2023/05/02 13:24:54;;;;;;;5.95;3.92;;;;;;;;;;5111929;28;20059;-61
2023/05/02 13:27:22;;;;;;;6.78;3.83;;;;;;;;;;5111856;28;20019;-61
2023/05/02 13:29:49;;;;;;;7.05;3.88;;;;;;;;;;5109755;28;20111;-61
2023/05/02 13:32:15;;;;;;;5.85;4.03;;;;;;;;;;5112486;28;20050;-61
2023/05/02 13:34:41;;;;;;;8.07;3.55;;;;;;;;;;5110729;28;20071;-61
2023/05/02 13:37:07;;;;;;;8.10;4.80;;;;;;;;;;5112171;28;20042;-61
2023/05/02 13:39:33;;;;;;;5.30;3.58;;;;;;;;;;5112847;28;20028;-61
2023/05/02 13:42:02;;;;;;;7.45;4.32;;;;;;;;;;5112387;28;20016;-61
2023/05/02 13:44:28;;;;;;;6.45;4.43;;;;;;;;;;5111443;28;20077;-61
2023/05/02 13:46:54;;;;;;;5.53;3.92;;;;;;;;;;5111783;28;20081;-62
2023/05/02 13:49:20;;;;;;;4.88;3.17;;;;;;;;;;5112560;28;20024;-61
2023/05/02 13:51:46;;;;;;;4.32;3.30;;;;;;;;;;5112223;28;20031;-61
2023/05/02 13:54:12;;;;;;;5.40;3.47;;;;;;;;;;5111703;28;20437;-61
2023/05/02 13:56:39;;;;;;;5.63;3.45;;;;;;;;;;5111091;28;20061;-61
2023/05/02 13:59:05;;;;;;;5.70;4.05;;;;;;;;;;5111536;28;20416;-61
2023/05/02 14:01:31;;;;;;;4.35;3.90;;;;;;;;;;5112152;28;20024;-61
2023/05/02 14:03:57;;;;;;;5.50;3.40;;;;;;;;;;5111962;28;20032;-61
2023/05/02 14:06:24;;;;;;;3.92;3.50;;;;;;;;;;5111460;28;20023;-61
2023/05/02 14:08:50;;;;;;;5.38;3.70;;;;;;;;;;5111931;28;20059;-61
2023/05/02 14:11:16;;;;;;;7.28;3.63;;;;;;;;;;5111840;28;20403;-61
2023/05/02 14:13:42;;;;;;;5.57;3.78;;;;;;;;;;5111604;28;20036;-61
2023/05/02 14:16:08;;;;;;;5.82;3.90;;;;;;;;;;5111549;28;20410;-61
2023/05/02 14:18:34;;;;;;;6.05;3.50;;;;;;;;;;5111720;28;20034;-61
2023/05/02 14:21:00;;;;;;;6.50;4.13;;;;;;;;;;5112114;28;20439;-61
2023/05/02 14:23:29;;;;;;;4.35;3.75;;;;;;;;;;5111926;28;20034;-61
2023/05/02 14:25:55;;;;;;;5.13;3.83;;;;;;;;;;5110308;28;20031;-61
2023/05/02 14:28:22;;;;;;;4.80;3.80;;;;;;;;;;5111225;28;20495;-61
2023/05/02 14:30:48;;;;;;;5.22;3.75;;;;;;;;;;5110835;27;20031;-61
2023/05/02 14:33:14;;;;;;;6.05;4.15;;;;;;;;;;5111585;28;20032;-61
2023/05/02 14:35:40;;;;;;;6.13;3.72;;;;;;;;;;5111191;28;20023;-62
2023/05/02 14:38:06;;;;;;;7.32;3.22;;;;;;;;;;5111679;28;20478;-61
2023/05/02 14:40:33;;;;;;;4.95;3.67;;;;;;;;;;5111189;28;20016;-61
2023/05/02 14:42:59;;;;;;;4.53;2.75;;;;;;;;;;5110962;28;20107;-61
2023/05/02 14:45:25;;;;;;;6.57;3.42;;;;;;;;;;5111055;28;20023;-61